sensor_id;sensor_type;location;lat;lon;timestamp;temperature;humidity
38333;DHT22;25748;46.670;14.272;2023-04-24T00:00:42;10.70;55.20
38333;DHT22;25748;46.670;14.272;2023-04-24T00:03:10;10.80;55.20
38333;DHT22;25748;46.670;14.272;2023-04-24T00:05:36;10.80;55.30
38333;DHT22;25748;46.670;14.272;2023-04-24T00:08:02;10.80;55.30
38333;DHT22;25748;46.670;14.272;2023-04-24T00:10:27;10.80;55.30
38333;DHT22;25748;46.670;14.272;2023-04-24T00:12:53;10.80;55.30
38333;DHT22;25748;46.670;14.272;2023-04-24T00:15:19;10.90;55.50
38333;DHT22;25748;46.670;14.272;2023-04-24T00:17:44;10.90;55.50
38333;DHT22;25748;46.670;14.272;2023-04-24T00:20:10;10.90;55.20
38333;DHT22;25748;46.670;14.272;2023-04-24T00:22:36;11.00;54.90
38333;DHT22;25748;46.670;14.272;2023-04-24T00:25:02;11.10;54.40
38333;DHT22;25748;46.670;14.272;2023-04-24T00:27:28;11.20;54.50
38333;DHT22;25748;46.670;14.272;2023-04-24T00:29:54;11.30;54.50
38333;DHT22;25748;46.670;14.272;2023-04-24T00:32:20;11.30;54.60
38333;DHT22;25748;46.670;14.272;2023-04-24T00:34:45;11.30;54.70
38333;DHT22;25748;46.670;14.272;2023-04-24T00:37:11;11.30;54.70
38333;DHT22;25748;46.670;14.272;2023-04-24T00:39:37;11.30;54.90
38333;DHT22;25748;46.670;14.272;2023-04-24T00:42:02;11.10;55.50
38333;DHT22;25748;46.670;14.272;2023-04-24T00:44:28;11.20;55.60
38333;DHT22;25748;46.670;14.272;2023-04-24T00:46:55;11.10;55.60
38333;DHT22;25748;46.670;14.272;2023-04-24T00:49:21;11.10;55.80
38333;DHT22;25748;46.670;14.272;2023-04-24T00:51:47;11.10;56.00
38333;DHT22;25748;46.670;14.272;2023-04-24T00:54:15;11.10;56.00
38333;DHT22;25748;46.670;14.272;2023-04-24T00:56:42;11.10;55.90
38333;DHT22;25748;46.670;14.272;2023-04-24T00:59:08;11.10;55.90
38333;DHT22;25748;46.670;14.272;2023-04-24T01:01:34;11.20;55.80
38333;DHT22;25748;46.670;14.272;2023-04-24T01:04:00;11.20;55.60
38333;DHT22;25748;46.670;14.272;2023-04-24T01:06:28;11.20;55.70
38333;DHT22;25748;46.670;14.272;2023-04-24T01:08:57;11.20;55.70
38333;DHT22;25748;46.670;14.272;2023-04-24T01:11:24;11.20;55.90
38333;DHT22;25748;46.670;14.272;2023-04-24T01:13:50;11.10;55.90
38333;DHT22;25748;46.670;14.272;2023-04-24T01:16:16;11.10;56.20
38333;DHT22;25748;46.670;14.272;2023-04-24T01:18:43;11.10;56.10
38333;DHT22;25748;46.670;14.272;2023-04-24T01:21:10;11.10;56.20
38333;DHT22;25748;46.670;14.272;2023-04-24T01:23:38;11.10;56.20
38333;DHT22;25748;46.670;14.272;2023-04-24T01:26:04;11.00;56.20
38333;DHT22;25748;46.670;14.272;2023-04-24T01:28:30;11.00;56.40
38333;DHT22;25748;46.670;14.272;2023-04-24T01:30:56;11.00;56.40
38333;DHT22;25748;46.670;14.272;2023-04-24T01:33:22;11.00;56.50
38333;DHT22;25748;46.670;14.272;2023-04-24T01:35:48;11.00;56.50
38333;DHT22;25748;46.670;14.272;2023-04-24T01:38:14;11.00;56.40
38333;DHT22;25748;46.670;14.272;2023-04-24T01:40:40;11.00;56.60
38333;DHT22;25748;46.670;14.272;2023-04-24T01:43:06;11.00;56.50
38333;DHT22;25748;46.670;14.272;2023-04-24T01:45:32;11.00;56.50
38333;DHT22;25748;46.670;14.272;2023-04-24T01:47:58;11.00;56.60
38333;DHT22;25748;46.670;14.272;2023-04-24T01:50:25;11.00;56.60
38333;DHT22;25748;46.670;14.272;2023-04-24T01:52:51;11.00;56.60
38333;DHT22;25748;46.670;14.272;2023-04-24T01:55:17;10.90;56.50
38333;DHT22;25748;46.670;14.272;2023-04-24T01:57:43;10.90;56.70
38333;DHT22;25748;46.670;14.272;2023-04-24T02:00:09;10.80;57.10
38333;DHT22;25748;46.670;14.272;2023-04-24T02:02:36;10.80;57.00
38333;DHT22;25748;46.670;14.272;2023-04-24T02:05:02;10.90;56.90
38333;DHT22;25748;46.670;14.272;2023-04-24T02:07:28;10.80;56.80
38333;DHT22;25748;46.670;14.272;2023-04-24T02:09:54;10.80;56.80
38333;DHT22;25748;46.670;14.272;2023-04-24T02:12:20;10.80;56.80
38333;DHT22;25748;46.670;14.272;2023-04-24T02:14:46;10.80;56.90
38333;DHT22;25748;46.670;14.272;2023-04-24T02:17:12;10.80;56.90
38333;DHT22;25748;46.670;14.272;2023-04-24T02:19:38;10.70;56.90
38333;DHT22;25748;46.670;14.272;2023-04-24T02:22:04;10.70;56.90
38333;DHT22;25748;46.670;14.272;2023-04-24T02:24:30;10.60;57.30
38333;DHT22;25748;46.670;14.272;2023-04-24T02:26:56;10.60;57.30
38333;DHT22;25748;46.670;14.272;2023-04-24T02:29:21;10.70;57.30
38333;DHT22;25748;46.670;14.272;2023-04-24T02:31:47;10.70;57.30
38333;DHT22;25748;46.670;14.272;2023-04-24T02:34:16;10.60;57.20
38333;DHT22;25748;46.670;14.272;2023-04-24T02:36:45;10.60;57.20
38333;DHT22;25748;46.670;14.272;2023-04-24T02:39:11;10.60;57.30
38333;DHT22;25748;46.670;14.272;2023-04-24T02:41:36;10.60;57.30
38333;DHT22;25748;46.670;14.272;2023-04-24T02:44:02;10.60;57.30
38333;DHT22;25748;46.670;14.272;2023-04-24T02:46:28;10.60;57.40
38333;DHT22;25748;46.670;14.272;2023-04-24T02:48:54;10.60;57.40
38333;DHT22;25748;46.670;14.272;2023-04-24T02:51:20;10.50;57.70
38333;DHT22;25748;46.670;14.272;2023-04-24T02:53:45;10.50;57.90
38333;DHT22;25748;46.670;14.272;2023-04-24T02:56:11;10.50;57.80
38333;DHT22;25748;46.670;14.272;2023-04-24T02:58:40;10.60;57.80
38333;DHT22;25748;46.670;14.272;2023-04-24T03:01:05;10.50;57.80
38333;DHT22;25748;46.670;14.272;2023-04-24T03:03:31;10.50;57.80
38333;DHT22;25748;46.670;14.272;2023-04-24T03:05:57;10.50;57.70
38333;DHT22;25748;46.670;14.272;2023-04-24T03:08:23;10.50;57.80
38333;DHT22;25748;46.670;14.272;2023-04-24T03:10:48;10.50;58.00
38333;DHT22;25748;46.670;14.272;2023-04-24T03:13:15;10.50;57.90
38333;DHT22;25748;46.670;14.272;2023-04-24T03:15:41;10.50;58.00
38333;DHT22;25748;46.670;14.272;2023-04-24T03:18:07;10.50;58.10
38333;DHT22;25748;46.670;14.272;2023-04-24T03:20:32;10.50;58.10
38333;DHT22;25748;46.670;14.272;2023-04-24T03:22:58;10.50;58.20
38333;DHT22;25748;46.670;14.272;2023-04-24T03:25:24;10.50;58.70
38333;DHT22;25748;46.670;14.272;2023-04-24T03:27:50;10.50;58.90
38333;DHT22;25748;46.670;14.272;2023-04-24T03:30:16;10.50;59.10
38333;DHT22;25748;46.670;14.272;2023-04-24T03:32:41;10.60;59.10
38333;DHT22;25748;46.670;14.272;2023-04-24T03:35:07;10.50;59.10
38333;DHT22;25748;46.670;14.272;2023-04-24T03:37:34;10.50;59.30
38333;DHT22;25748;46.670;14.272;2023-04-24T03:40:00;10.50;59.20
38333;DHT22;25748;46.670;14.272;2023-04-24T03:42:26;10.50;59.30
38333;DHT22;25748;46.670;14.272;2023-04-24T03:44:51;10.50;59.50
38333;DHT22;25748;46.670;14.272;2023-04-24T03:47:17;10.50;59.70
38333;DHT22;25748;46.670;14.272;2023-04-24T03:49:43;10.50;60.30
38333;DHT22;25748;46.670;14.272;2023-04-24T03:52:09;10.50;60.70
38333;DHT22;25748;46.670;14.272;2023-04-24T03:54:34;10.50;60.90
38333;DHT22;25748;46.670;14.272;2023-04-24T03:57:00;10.60;61.10
38333;DHT22;25748;46.670;14.272;2023-04-24T03:59:26;10.50;61.60
38333;DHT22;25748;46.670;14.272;2023-04-24T04:01:52;10.50;61.60
38333;DHT22;25748;46.670;14.272;2023-04-24T04:04:18;10.50;61.60
38333;DHT22;25748;46.670;14.272;2023-04-24T04:06:44;10.50;61.60
38333;DHT22;25748;46.670;14.272;2023-04-24T04:09:10;10.50;61.70
38333;DHT22;25748;46.670;14.272;2023-04-24T04:11:36;10.60;61.90
38333;DHT22;25748;46.670;14.272;2023-04-24T04:14:02;10.50;61.80
38333;DHT22;25748;46.670;14.272;2023-04-24T04:16:27;10.50;61.80
38333;DHT22;25748;46.670;14.272;2023-04-24T04:18:53;10.50;62.10
38333;DHT22;25748;46.670;14.272;2023-04-24T04:21:19;10.60;62.30
38333;DHT22;25748;46.670;14.272;2023-04-24T04:23:44;10.50;62.20
38333;DHT22;25748;46.670;14.272;2023-04-24T04:26:11;10.50;62.30
38333;DHT22;25748;46.670;14.272;2023-04-24T04:28:38;10.50;62.40
38333;DHT22;25748;46.670;14.272;2023-04-24T04:31:04;10.50;62.50
38333;DHT22;25748;46.670;14.272;2023-04-24T04:33:30;10.50;62.80
38333;DHT22;25748;46.670;14.272;2023-04-24T04:35:56;10.50;62.80
38333;DHT22;25748;46.670;14.272;2023-04-24T04:38:22;10.50;63.10
38333;DHT22;25748;46.670;14.272;2023-04-24T04:40:48;10.50;63.50
38333;DHT22;25748;46.670;14.272;2023-04-24T04:43:14;10.50;63.60
38333;DHT22;25748;46.670;14.272;2023-04-24T04:45:43;10.50;63.80
38333;DHT22;25748;46.670;14.272;2023-04-24T04:48:09;10.40;63.90
38333;DHT22;25748;46.670;14.272;2023-04-24T04:50:37;10.40;64.70
38333;DHT22;25748;46.670;14.272;2023-04-24T04:53:03;10.40;65.20
38333;DHT22;25748;46.670;14.272;2023-04-24T04:55:29;10.40;65.30
38333;DHT22;25748;46.670;14.272;2023-04-24T04:57:55;10.40;65.80
38333;DHT22;25748;46.670;14.272;2023-04-24T05:00:21;10.40;66.50
38333;DHT22;25748;46.670;14.272;2023-04-24T05:02:47;10.40;67.20
38333;DHT22;25748;46.670;14.272;2023-04-24T05:05:13;10.40;67.80
38333;DHT22;25748;46.670;14.272;2023-04-24T05:07:38;10.40;68.40
38333;DHT22;25748;46.670;14.272;2023-04-24T05:10:04;10.40;69.20
38333;DHT22;25748;46.670;14.272;2023-04-24T05:12:30;10.40;70.00
38333;DHT22;25748;46.670;14.272;2023-04-24T05:14:56;10.40;70.60
38333;DHT22;25748;46.670;14.272;2023-04-24T05:17:22;10.50;71.30
38333;DHT22;25748;46.670;14.272;2023-04-24T05:19:47;10.50;71.80
38333;DHT22;25748;46.670;14.272;2023-04-24T05:22:13;10.60;72.20
38333;DHT22;25748;46.670;14.272;2023-04-24T05:24:39;10.60;72.40
38333;DHT22;25748;46.670;14.272;2023-04-24T05:27:05;10.70;71.90
38333;DHT22;25748;46.670;14.272;2023-04-24T05:29:31;10.70;71.60
38333;DHT22;25748;46.670;14.272;2023-04-24T05:31:57;10.70;71.30
38333;DHT22;25748;46.670;14.272;2023-04-24T05:34:23;10.70;71.20
38333;DHT22;25748;46.670;14.272;2023-04-24T05:36:49;10.70;70.70
38333;DHT22;25748;46.670;14.272;2023-04-24T05:39:16;10.70;70.70
38333;DHT22;25748;46.670;14.272;2023-04-24T05:41:42;10.70;70.90
38333;DHT22;25748;46.670;14.272;2023-04-24T05:44:08;10.60;71.50
38333;DHT22;25748;46.670;14.272;2023-04-24T05:46:34;10.70;71.90
38333;DHT22;25748;46.670;14.272;2023-04-24T05:48:59;10.70;72.70
38333;DHT22;25748;46.670;14.272;2023-04-24T05:51:25;10.80;73.20
38333;DHT22;25748;46.670;14.272;2023-04-24T05:53:51;10.90;73.10
38333;DHT22;25748;46.670;14.272;2023-04-24T05:56:17;10.80;73.00
38333;DHT22;25748;46.670;14.272;2023-04-24T05:58:45;10.90;72.80
38333;DHT22;25748;46.670;14.272;2023-04-24T06:01:14;10.80;72.50
38333;DHT22;25748;46.670;14.272;2023-04-24T06:03:41;10.80;72.50
38333;DHT22;25748;46.670;14.272;2023-04-24T06:06:07;10.90;72.60
38333;DHT22;25748;46.670;14.272;2023-04-24T06:08:34;10.90;72.80
38333;DHT22;25748;46.670;14.272;2023-04-24T06:11:00;11.00;72.60
38333;DHT22;25748;46.670;14.272;2023-04-24T06:13:25;11.00;72.20
38333;DHT22;25748;46.670;14.272;2023-04-24T06:15:52;11.00;72.20
38333;DHT22;25748;46.670;14.272;2023-04-24T06:18:18;11.10;72.40
38333;DHT22;25748;46.670;14.272;2023-04-24T06:20:45;11.10;71.90
38333;DHT22;25748;46.670;14.272;2023-04-24T06:23:11;11.20;72.00
38333;DHT22;25748;46.670;14.272;2023-04-24T06:25:37;11.10;71.80
38333;DHT22;25748;46.670;14.272;2023-04-24T06:28:03;11.20;71.90
38333;DHT22;25748;46.670;14.272;2023-04-24T06:30:29;11.10;71.60
38333;DHT22;25748;46.670;14.272;2023-04-24T06:32:55;11.10;71.20
38333;DHT22;25748;46.670;14.272;2023-04-24T06:35:20;11.10;71.50
38333;DHT22;25748;46.670;14.272;2023-04-24T06:37:46;11.10;71.10
38333;DHT22;25748;46.670;14.272;2023-04-24T06:40:12;11.00;71.00
38333;DHT22;25748;46.670;14.272;2023-04-24T06:42:38;11.00;71.80
38333;DHT22;25748;46.670;14.272;2023-04-24T06:45:04;11.10;72.00
38333;DHT22;25748;46.670;14.272;2023-04-24T06:47:30;11.20;71.80
38333;DHT22;25748;46.670;14.272;2023-04-24T06:49:56;11.20;71.70
38333;DHT22;25748;46.670;14.272;2023-04-24T06:52:22;11.20;71.40
38333;DHT22;25748;46.670;14.272;2023-04-24T06:54:48;11.10;71.60
38333;DHT22;25748;46.670;14.272;2023-04-24T06:57:13;11.00;71.30
38333;DHT22;25748;46.670;14.272;2023-04-24T06:59:41;11.00;71.00
38333;DHT22;25748;46.670;14.272;2023-04-24T07:02:07;11.00;72.00
38333;DHT22;25748;46.670;14.272;2023-04-24T07:04:32;11.00;72.40
38333;DHT22;25748;46.670;14.272;2023-04-24T07:06:58;11.00;72.50
38333;DHT22;25748;46.670;14.272;2023-04-24T07:09:25;11.00;72.90
38333;DHT22;25748;46.670;14.272;2023-04-24T07:11:51;11.00;73.30
38333;DHT22;25748;46.670;14.272;2023-04-24T07:14:17;11.10;73.50
38333;DHT22;25748;46.670;14.272;2023-04-24T07:16:43;11.10;73.20
38333;DHT22;25748;46.670;14.272;2023-04-24T07:19:09;11.20;73.30
38333;DHT22;25748;46.670;14.272;2023-04-24T07:21:35;11.20;72.70
38333;DHT22;25748;46.670;14.272;2023-04-24T07:24:01;11.20;73.00
38333;DHT22;25748;46.670;14.272;2023-04-24T07:26:29;11.30;72.90
38333;DHT22;25748;46.670;14.272;2023-04-24T07:28:54;11.30;72.20
38333;DHT22;25748;46.670;14.272;2023-04-24T07:31:20;11.30;72.10
38333;DHT22;25748;46.670;14.272;2023-04-24T07:33:46;11.40;71.90
38333;DHT22;25748;46.670;14.272;2023-04-24T07:36:12;11.40;71.70
38333;DHT22;25748;46.670;14.272;2023-04-24T07:38:42;11.40;71.00
38333;DHT22;25748;46.670;14.272;2023-04-24T07:41:08;11.30;70.80
38333;DHT22;25748;46.670;14.272;2023-04-24T07:43:34;11.30;71.40
38333;DHT22;25748;46.670;14.272;2023-04-24T07:46:00;11.30;71.80
38333;DHT22;25748;46.670;14.272;2023-04-24T07:48:26;11.30;72.00
38333;DHT22;25748;46.670;14.272;2023-04-24T07:50:52;11.30;72.20
38333;DHT22;25748;46.670;14.272;2023-04-24T07:53:17;11.30;72.80
38333;DHT22;25748;46.670;14.272;2023-04-24T07:55:43;11.30;73.20
38333;DHT22;25748;46.670;14.272;2023-04-24T07:58:09;11.30;73.10
38333;DHT22;25748;46.670;14.272;2023-04-24T08:00:35;11.30;73.40
38333;DHT22;25748;46.670;14.272;2023-04-24T08:03:01;11.30;73.40
38333;DHT22;25748;46.670;14.272;2023-04-24T08:05:26;11.30;73.30
38333;DHT22;25748;46.670;14.272;2023-04-24T08:07:54;11.30;73.90
38333;DHT22;25748;46.670;14.272;2023-04-24T08:10:21;11.40;74.20
38333;DHT22;25748;46.670;14.272;2023-04-24T08:12:46;11.40;74.10
38333;DHT22;25748;46.670;14.272;2023-04-24T08:15:12;11.40;74.20
38333;DHT22;25748;46.670;14.272;2023-04-24T08:17:38;11.40;74.00
38333;DHT22;25748;46.670;14.272;2023-04-24T08:20:04;11.40;74.60
38333;DHT22;25748;46.670;14.272;2023-04-24T08:22:30;11.50;74.90
38333;DHT22;25748;46.670;14.272;2023-04-24T08:24:57;11.50;74.60
38333;DHT22;25748;46.670;14.272;2023-04-24T08:27:23;11.50;74.40
38333;DHT22;25748;46.670;14.272;2023-04-24T08:29:49;11.50;73.70
38333;DHT22;25748;46.670;14.272;2023-04-24T08:32:15;11.50;75.10
38333;DHT22;25748;46.670;14.272;2023-04-24T08:34:41;11.50;74.90
38333;DHT22;25748;46.670;14.272;2023-04-24T08:37:07;11.40;74.70
38333;DHT22;25748;46.670;14.272;2023-04-24T08:39:32;11.40;75.40
38333;DHT22;25748;46.670;14.272;2023-04-24T08:41:59;11.50;76.50
38333;DHT22;25748;46.670;14.272;2023-04-24T08:44:32;11.40;75.80
38333;DHT22;25748;46.670;14.272;2023-04-24T08:46:58;11.40;76.30
38333;DHT22;25748;46.670;14.272;2023-04-24T08:49:24;11.40;76.50
38333;DHT22;25748;46.670;14.272;2023-04-24T08:51:52;11.30;77.20
38333;DHT22;25748;46.670;14.272;2023-04-24T08:54:19;11.40;78.10
38333;DHT22;25748;46.670;14.272;2023-04-24T08:56:44;11.40;78.90
38333;DHT22;25748;46.670;14.272;2023-04-24T08:59:13;11.50;79.50
38333;DHT22;25748;46.670;14.272;2023-04-24T09:01:40;11.50;79.10
38333;DHT22;25748;46.670;14.272;2023-04-24T09:04:08;11.60;79.50
38333;DHT22;25748;46.670;14.272;2023-04-24T09:06:35;11.60;79.20
38333;DHT22;25748;46.670;14.272;2023-04-24T09:09:02;11.60;78.80
38333;DHT22;25748;46.670;14.272;2023-04-24T09:11:30;11.70;78.70
38333;DHT22;25748;46.670;14.272;2023-04-24T09:13:56;11.60;76.90
38333;DHT22;25748;46.670;14.272;2023-04-24T09:16:22;11.60;76.30
38333;DHT22;25748;46.670;14.272;2023-04-24T09:18:50;11.60;76.60
38333;DHT22;25748;46.670;14.272;2023-04-24T09:21:15;11.70;77.10
38333;DHT22;25748;46.670;14.272;2023-04-24T09:23:41;11.70;77.10
38333;DHT22;25748;46.670;14.272;2023-04-24T09:26:09;11.70;76.50
38333;DHT22;25748;46.670;14.272;2023-04-24T09:28:37;11.70;76.70
38333;DHT22;25748;46.670;14.272;2023-04-24T09:31:13;11.80;77.20
38333;DHT22;25748;46.670;14.272;2023-04-24T09:33:40;11.70;75.60
38333;DHT22;25748;46.670;14.272;2023-04-24T09:36:06;11.70;75.80
38333;DHT22;25748;46.670;14.272;2023-04-24T09:38:32;11.70;75.30
38333;DHT22;25748;46.670;14.272;2023-04-24T09:41:03;11.80;76.30
38333;DHT22;25748;46.670;14.272;2023-04-24T09:43:30;11.90;75.80
38333;DHT22;25748;46.670;14.272;2023-04-24T09:45:56;12.00;76.50
38333;DHT22;25748;46.670;14.272;2023-04-24T09:48:33;12.00;76.20
38333;DHT22;25748;46.670;14.272;2023-04-24T09:50:59;12.10;76.00
38333;DHT22;25748;46.670;14.272;2023-04-24T09:53:27;12.10;75.30
38333;DHT22;25748;46.670;14.272;2023-04-24T09:55:52;12.20;75.70
38333;DHT22;25748;46.670;14.272;2023-04-24T09:58:24;12.10;75.00
38333;DHT22;25748;46.670;14.272;2023-04-24T10:00:53;12.00;75.50
38333;DHT22;25748;46.670;14.272;2023-04-24T10:03:19;12.10;75.10
38333;DHT22;25748;46.670;14.272;2023-04-24T10:05:46;12.10;75.30
38333;DHT22;25748;46.670;14.272;2023-04-24T10:08:13;12.10;73.80
38333;DHT22;25748;46.670;14.272;2023-04-24T10:10:45;12.00;72.80
38333;DHT22;25748;46.670;14.272;2023-04-24T10:13:13;12.00;72.50
38333;DHT22;25748;46.670;14.272;2023-04-24T10:15:40;12.00;71.30
38333;DHT22;25748;46.670;14.272;2023-04-24T10:18:06;11.90;70.70
38333;DHT22;25748;46.670;14.272;2023-04-24T10:20:35;11.90;71.80
38333;DHT22;25748;46.670;14.272;2023-04-24T10:23:01;12.00;71.90
38333;DHT22;25748;46.670;14.272;2023-04-24T10:25:37;12.10;73.40
38333;DHT22;25748;46.670;14.272;2023-04-24T10:28:03;12.10;71.80
38333;DHT22;25748;46.670;14.272;2023-04-24T10:30:33;12.10;71.60
38333;DHT22;25748;46.670;14.272;2023-04-24T10:33:04;12.20;72.30
38333;DHT22;25748;46.670;14.272;2023-04-24T10:35:31;12.20;70.50
38333;DHT22;25748;46.670;14.272;2023-04-24T10:40:31;12.20;70.50
38333;DHT22;25748;46.670;14.272;2023-04-24T10:42:57;12.20;69.20
38333;DHT22;25748;46.670;14.272;2023-04-24T10:45:24;12.30;68.90
38333;DHT22;25748;46.670;14.272;2023-04-24T10:50:28;12.30;66.70
38333;DHT22;25748;46.670;14.272;2023-04-24T10:53:06;12.30;66.50
38333;DHT22;25748;46.670;14.272;2023-04-24T10:56:10;12.30;66.30
38333;DHT22;25748;46.670;14.272;2023-04-24T10:58:43;12.40;67.20
38333;DHT22;25748;46.670;14.272;2023-04-24T11:01:32;12.40;65.10
38333;DHT22;25748;46.670;14.272;2023-04-24T11:04:00;12.40;64.50
38333;DHT22;25748;46.670;14.272;2023-04-24T11:06:37;12.40;63.20
38333;DHT22;25748;46.670;14.272;2023-04-24T11:09:04;12.40;63.30
38333;DHT22;25748;46.670;14.272;2023-04-24T11:11:35;12.40;63.30
38333;DHT22;25748;46.670;14.272;2023-04-24T11:14:02;12.40;63.00
38333;DHT22;25748;46.670;14.272;2023-04-24T11:16:33;12.40;62.70
38333;DHT22;25748;46.670;14.272;2023-04-24T11:22:00;12.50;62.70
38333;DHT22;25748;46.670;14.272;2023-04-24T11:29:49;12.80;62.10
38333;DHT22;25748;46.670;14.272;2023-04-24T11:35:01;13.00;59.90
38333;DHT22;25748;46.670;14.272;2023-04-24T11:37:29;13.00;58.90
38333;DHT22;25748;46.670;14.272;2023-04-24T11:39:56;13.00;59.10
38333;DHT22;25748;46.670;14.272;2023-04-24T11:42:23;13.20;59.40
38333;DHT22;25748;46.670;14.272;2023-04-24T11:44:50;13.20;59.10
38333;DHT22;25748;46.670;14.272;2023-04-24T11:47:17;13.30;59.00
38333;DHT22;25748;46.670;14.272;2023-04-24T11:49:43;13.40;59.00
38333;DHT22;25748;46.670;14.272;2023-04-24T11:52:08;13.40;58.80
38333;DHT22;25748;46.670;14.272;2023-04-24T11:54:34;13.40;58.90
38333;DHT22;25748;46.670;14.272;2023-04-24T11:57:04;13.40;58.00
38333;DHT22;25748;46.670;14.272;2023-04-24T11:59:30;13.40;58.30
38333;DHT22;25748;46.670;14.272;2023-04-24T12:02:00;13.30;58.00
38333;DHT22;25748;46.670;14.272;2023-04-24T12:04:26;13.30;58.40
38333;DHT22;25748;46.670;14.272;2023-04-24T12:07:04;13.30;58.40
38333;DHT22;25748;46.670;14.272;2023-04-24T12:09:47;13.30;57.90
38333;DHT22;25748;46.670;14.272;2023-04-24T12:12:14;13.30;57.70
38333;DHT22;25748;46.670;14.272;2023-04-24T12:14:52;13.30;58.00
38333;DHT22;25748;46.670;14.272;2023-04-24T12:17:24;13.40;57.90
38333;DHT22;25748;46.670;14.272;2023-04-24T12:19:50;13.50;58.10
38333;DHT22;25748;46.670;14.272;2023-04-24T12:22:16;13.50;57.70
38333;DHT22;25748;46.670;14.272;2023-04-24T12:24:59;13.40;57.00
38333;DHT22;25748;46.670;14.272;2023-04-24T12:27:26;13.30;57.40
38333;DHT22;25748;46.670;14.272;2023-04-24T12:29:53;13.40;57.30
38333;DHT22;25748;46.670;14.272;2023-04-24T12:32:20;13.40;57.10
38333;DHT22;25748;46.670;14.272;2023-04-24T12:34:46;13.40;57.00
38333;DHT22;25748;46.670;14.272;2023-04-24T12:37:12;13.50;57.10
38333;DHT22;25748;46.670;14.272;2023-04-24T12:39:37;13.40;57.00
38333;DHT22;25748;46.670;14.272;2023-04-24T12:42:03;13.50;57.70
38333;DHT22;25748;46.670;14.272;2023-04-24T12:44:33;13.50;57.30
38333;DHT22;25748;46.670;14.272;2023-04-24T12:47:01;13.60;57.30
38333;DHT22;25748;46.670;14.272;2023-04-24T12:49:27;13.50;56.90
38333;DHT22;25748;46.670;14.272;2023-04-24T12:51:54;13.60;56.80
38333;DHT22;25748;46.670;14.272;2023-04-24T12:54:19;13.70;56.60
38333;DHT22;25748;46.670;14.272;2023-04-24T12:56:45;13.70;56.70
38333;DHT22;25748;46.670;14.272;2023-04-24T12:59:11;13.70;56.20
38333;DHT22;25748;46.670;14.272;2023-04-24T13:01:36;13.70;56.20
38333;DHT22;25748;46.670;14.272;2023-04-24T13:04:02;13.70;56.20
38333;DHT22;25748;46.670;14.272;2023-04-24T13:06:28;13.40;56.00
38333;DHT22;25748;46.670;14.272;2023-04-24T13:08:53;13.40;56.30
38333;DHT22;25748;46.670;14.272;2023-04-24T13:11:20;13.40;56.60
38333;DHT22;25748;46.670;14.272;2023-04-24T13:13:47;13.40;56.60
38333;DHT22;25748;46.670;14.272;2023-04-24T13:16:13;13.50;57.10
38333;DHT22;25748;46.670;14.272;2023-04-24T13:18:38;13.40;56.90
38333;DHT22;25748;46.670;14.272;2023-04-24T13:21:04;13.40;57.10
38333;DHT22;25748;46.670;14.272;2023-04-24T13:23:30;13.40;57.20
38333;DHT22;25748;46.670;14.272;2023-04-24T13:25:56;13.40;57.30
38333;DHT22;25748;46.670;14.272;2023-04-24T13:28:24;13.30;57.10
38333;DHT22;25748;46.670;14.272;2023-04-24T13:30:50;13.30;57.00
38333;DHT22;25748;46.670;14.272;2023-04-24T13:33:16;13.30;57.20
38333;DHT22;25748;46.670;14.272;2023-04-24T13:35:42;13.40;57.10
38333;DHT22;25748;46.670;14.272;2023-04-24T13:38:08;13.20;57.00
38333;DHT22;25748;46.670;14.272;2023-04-24T13:40:33;13.30;57.70
38333;DHT22;25748;46.670;14.272;2023-04-24T13:42:59;13.30;58.10
38333;DHT22;25748;46.670;14.272;2023-04-24T13:45:26;13.20;58.10
38333;DHT22;25748;46.670;14.272;2023-04-24T13:47:52;13.20;58.50
38333;DHT22;25748;46.670;14.272;2023-04-24T13:50:19;13.20;59.00
38333;DHT22;25748;46.670;14.272;2023-04-24T13:52:45;13.20;59.10
38333;DHT22;25748;46.670;14.272;2023-04-24T13:55:11;13.10;58.80
38333;DHT22;25748;46.670;14.272;2023-04-24T13:57:37;13.00;58.70
38333;DHT22;25748;46.670;14.272;2023-04-24T14:00:03;13.00;58.70
38333;DHT22;25748;46.670;14.272;2023-04-24T14:02:29;13.10;58.30
38333;DHT22;25748;46.670;14.272;2023-04-24T14:04:55;12.90;58.30
38333;DHT22;25748;46.670;14.272;2023-04-24T14:07:21;12.90;58.40
38333;DHT22;25748;46.670;14.272;2023-04-24T14:09:47;12.70;58.50
38333;DHT22;25748;46.670;14.272;2023-04-24T14:12:13;12.70;58.70
38333;DHT22;25748;46.670;14.272;2023-04-24T14:14:39;12.70;58.70
38333;DHT22;25748;46.670;14.272;2023-04-24T14:17:05;12.60;59.30
38333;DHT22;25748;46.670;14.272;2023-04-24T14:19:31;12.50;59.60
38333;DHT22;25748;46.670;14.272;2023-04-24T14:21:57;12.40;59.40
38333;DHT22;25748;46.670;14.272;2023-04-24T14:24:23;12.40;59.60
38333;DHT22;25748;46.670;14.272;2023-04-24T14:26:52;12.40;59.90
38333;DHT22;25748;46.670;14.272;2023-04-24T14:29:21;12.20;60.40
38333;DHT22;25748;46.670;14.272;2023-04-24T14:31:47;12.20;60.90
38333;DHT22;25748;46.670;14.272;2023-04-24T14:34:13;12.10;62.00
38333;DHT22;25748;46.670;14.272;2023-04-24T14:36:39;12.00;62.50
38333;DHT22;25748;46.670;14.272;2023-04-24T14:39:06;12.00;63.10
38333;DHT22;25748;46.670;14.272;2023-04-24T14:41:33;12.00;63.10
38333;DHT22;25748;46.670;14.272;2023-04-24T14:44:01;12.00;62.90
38333;DHT22;25748;46.670;14.272;2023-04-24T14:46:29;12.00;63.40
38333;DHT22;25748;46.670;14.272;2023-04-24T14:48:58;12.00;63.30
38333;DHT22;25748;46.670;14.272;2023-04-24T14:51:24;12.00;63.80
38333;DHT22;25748;46.670;14.272;2023-04-24T14:53:51;12.00;64.00
38333;DHT22;25748;46.670;14.272;2023-04-24T14:56:17;12.00;64.20
38333;DHT22;25748;46.670;14.272;2023-04-24T14:58:43;12.00;64.20
38333;DHT22;25748;46.670;14.272;2023-04-24T15:01:08;12.00;64.60
38333;DHT22;25748;46.670;14.272;2023-04-24T15:03:34;11.90;65.20
38333;DHT22;25748;46.670;14.272;2023-04-24T15:06:00;11.90;66.00
38333;DHT22;25748;46.670;14.272;2023-04-24T15:08:26;11.90;66.10
38333;DHT22;25748;46.670;14.272;2023-04-24T15:10:52;11.90;67.00
38333;DHT22;25748;46.670;14.272;2023-04-24T15:13:18;11.70;65.50
38333;DHT22;25748;46.670;14.272;2023-04-24T15:15:46;11.60;62.20
38333;DHT22;25748;46.670;14.272;2023-04-24T15:18:12;11.50;61.80
38333;DHT22;25748;46.670;14.272;2023-04-24T15:20:38;11.50;62.90
38333;DHT22;25748;46.670;14.272;2023-04-24T15:23:05;11.40;62.90
38333;DHT22;25748;46.670;14.272;2023-04-24T15:25:31;11.40;64.00
38333;DHT22;25748;46.670;14.272;2023-04-24T15:27:58;11.40;65.00